sensor_id;sensor_type;location;lat;lon;timestamp;pressure;altitude;pressure_sealevel;temperature;humidity
75794;BME280;64418;47.536;19.074;2023-02-15T00:01:14;102017.28;;;-0.56;93.79
75794;BME280;64418;47.536;19.074;2023-02-15T00:03:40;102007.75;;;-0.60;94.03
75794;BME280;64418;47.536;19.074;2023-02-15T00:06:06;102018.03;;;-0.54;94.34
75794;BME280;64418;47.536;19.074;2023-02-15T00:08:33;102007.88;;;-0.47;94.31
75794;BME280;64418;47.536;19.074;2023-02-15T00:11:09;102000.91;;;-0.36;94.01
75794;BME280;64418;47.536;19.074;2023-02-15T00:13:37;102002.47;;;-0.46;94.15
75794;BME280;64418;47.536;19.074;2023-02-15T00:16:03;102001.03;;;-0.52;94.21
75794;BME280;64418;47.536;19.074;2023-02-15T00:18:30;102009.00;;;-0.52;94.26
75794;BME280;64418;47.536;19.074;2023-02-15T00:20:55;102013.75;;;-0.57;94.49
75794;BME280;64418;47.536;19.074;2023-02-15T00:23:21;102017.66;;;-0.62;94.55
75794;BME280;64418;47.536;19.074;2023-02-15T00:26:09;102019.66;;;-0.66;94.51
75794;BME280;64418;47.536;19.074;2023-02-15T00:28:36;102008.63;;;-0.60;94.83
75794;BME280;64418;47.536;19.074;2023-02-15T00:31:05;102016.78;;;-0.49;94.62
75794;BME280;64418;47.536;19.074;2023-02-15T00:33:31;102015.78;;;-0.46;94.42
75794;BME280;64418;47.536;19.074;2023-02-15T00:36:17;102016.25;;;-0.54;94.49
75794;BME280;64418;47.536;19.074;2023-02-15T00:38:43;102018.03;;;-0.54;94.30
75794;BME280;64418;47.536;19.074;2023-02-15T00:41:10;102010.53;;;-0.62;94.45
75794;BME280;64418;47.536;19.074;2023-02-15T00:43:36;102017.19;;;-0.55;94.44
75794;BME280;64418;47.536;19.074;2023-02-15T00:46:03;102018.41;;;-0.60;94.29
75794;BME280;64418;47.536;19.074;2023-02-15T00:48:29;102014.53;;;-0.69;94.58
75794;BME280;64418;47.536;19.074;2023-02-15T00:51:15;102009.47;;;-0.73;94.78
75794;BME280;64418;47.536;19.074;2023-02-15T00:53:40;102008.91;;;-0.78;95.10
75794;BME280;64418;47.536;19.074;2023-02-15T00:56:06;102008.34;;;-0.83;95.35
75794;BME280;64418;47.536;19.074;2023-02-15T00:58:34;102014.88;;;-0.75;95.55
75794;BME280;64418;47.536;19.074;2023-02-15T01:01:03;102008.69;;;-0.75;95.38
75794;BME280;64418;47.536;19.074;2023-02-15T01:03:29;102009.28;;;-0.84;95.57
75794;BME280;64418;47.536;19.074;2023-02-15T01:06:16;102004.81;;;-0.84;95.61
75794;BME280;64418;47.536;19.074;2023-02-15T01:08:43;102002.50;;;-0.90;95.66
75794;BME280;64418;47.536;19.074;2023-02-15T01:11:11;102007.69;;;-0.87;95.81
75794;BME280;64418;47.536;19.074;2023-02-15T01:13:38;102007.38;;;-0.97;95.92
75794;BME280;64418;47.536;19.074;2023-02-15T01:16:05;102012.87;;;-1.00;95.92
75794;BME280;64418;47.536;19.074;2023-02-15T01:18:31;102006.97;;;-1.05;95.99
75794;BME280;64418;47.536;19.074;2023-02-15T01:20:57;102011.62;;;-1.08;96.21
75794;BME280;64418;47.536;19.074;2023-02-15T01:23:23;102002.38;;;-1.17;96.38
75794;BME280;64418;47.536;19.074;2023-02-15T01:25:49;101998.38;;;-1.24;96.54
75794;BME280;64418;47.536;19.074;2023-02-15T01:28:35;102005.34;;;-1.21;96.70
75794;BME280;64418;47.536;19.074;2023-02-15T01:31:06;102009.87;;;-1.09;96.69
75794;BME280;64418;47.536;19.074;2023-02-15T01:33:31;102003.16;;;-1.15;96.50
75794;BME280;64418;47.536;19.074;2023-02-15T01:35:57;102004.88;;;-1.14;96.57
75794;BME280;64418;47.536;19.074;2023-02-15T01:38:27;102003.41;;;-1.19;96.54
75794;BME280;64418;47.536;19.074;2023-02-15T01:40:52;101996.94;;;-1.29;96.69
75794;BME280;64418;47.536;19.074;2023-02-15T01:43:19;101994.06;;;-1.40;96.91
75794;BME280;64418;47.536;19.074;2023-02-15T01:45:45;101980.22;;;-1.61;97.19
75794;BME280;64418;47.536;19.074;2023-02-15T01:48:20;101979.34;;;-1.62;97.41
75794;BME280;64418;47.536;19.074;2023-02-15T01:50:48;101982.47;;;-1.69;97.59
75794;BME280;64418;47.536;19.074;2023-02-15T01:53:38;101975.97;;;-1.79;97.75
75794;BME280;64418;47.536;19.074;2023-02-15T01:56:11;101982.03;;;-1.77;98.20
75794;BME280;64418;47.536;19.074;2023-02-15T01:58:38;101976.88;;;-1.65;98.60
75794;BME280;64418;47.536;19.074;2023-02-15T02:01:25;101981.72;;;-1.71;98.67
75794;BME280;64418;47.536;19.074;2023-02-15T02:03:57;101981.78;;;-1.73;98.80
75794;BME280;64418;47.536;19.074;2023-02-15T02:06:26;101988.66;;;-1.84;98.98
75794;BME280;64418;47.536;19.074;2023-02-15T02:08:53;101979.56;;;-1.80;99.16
75794;BME280;64418;47.536;19.074;2023-02-15T02:11:19;101977.78;;;-1.80;99.31
75794;BME280;64418;47.536;19.074;2023-02-15T02:13:45;101983.59;;;-1.73;99.51
75794;BME280;64418;47.536;19.074;2023-02-15T02:16:17;101972.34;;;-1.63;99.62
75794;BME280;64418;47.536;19.074;2023-02-15T02:25:16;101977.97;;;-1.53;99.69
75794;BME280;64418;47.536;19.074;2023-02-15T02:27:49;101980.03;;;-1.58;99.81
75794;BME280;64418;47.536;19.074;2023-02-15T02:30:50;101977.69;;;-1.63;100.00
75794;BME280;64418;47.536;19.074;2023-02-15T02:33:40;101978.69;;;-1.65;100.00
75794;BME280;64418;47.536;19.074;2023-02-15T02:36:15;101975.47;;;-1.70;100.00
75794;BME280;64418;47.536;19.074;2023-02-15T02:38:54;101976.88;;;-1.65;100.00
75794;BME280;64418;47.536;19.074;2023-02-15T02:41:28;101981.25;;;-1.64;100.00
75794;BME280;64418;47.536;19.074;2023-02-15T02:44:04;101984.00;;;-1.65;99.93
75794;BME280;64418;47.536;19.074;2023-02-15T02:46:35;101976.22;;;-1.68;99.50
75794;BME280;64418;47.536;19.074;2023-02-15T02:49:04;101985.91;;;-1.67;99.12
75794;BME280;64418;47.536;19.074;2023-02-15T02:51:30;101986.16;;;-1.72;98.93
75794;BME280;64418;47.536;19.074;2023-02-15T02:53:59;101988.12;;;-1.75;98.73
75794;BME280;64418;47.536;19.074;2023-02-15T02:56:29;101986.84;;;-1.84;99.04
75794;BME280;64418;47.536;19.074;2023-02-15T02:59:00;101993.97;;;-1.84;99.02
75794;BME280;64418;47.536;19.074;2023-02-15T03:01:32;101991.06;;;-1.80;99.16
75794;BME280;64418;47.536;19.074;2023-02-15T03:04:01;101993.41;;;-1.89;99.08
75794;BME280;64418;47.536;19.074;2023-02-15T03:06:35;101997.91;;;-1.91;99.20
75794;BME280;64418;47.536;19.074;2023-02-15T03:09:07;101995.38;;;-1.93;99.46
75794;BME280;64418;47.536;19.074;2023-02-15T03:11:35;101991.06;;;-1.96;99.51
75794;BME280;64418;47.536;19.074;2023-02-15T03:14:01;101989.53;;;-2.00;99.63
75794;BME280;64418;47.536;19.074;2023-02-15T03:16:27;101991.94;;;-1.95;99.63
75794;BME280;64418;47.536;19.074;2023-02-15T03:18:56;101995.81;;;-2.01;99.67
75794;BME280;64418;47.536;19.074;2023-02-15T03:21:30;101983.28;;;-1.99;99.79
75794;BME280;64418;47.536;19.074;2023-02-15T03:24:02;101985.87;;;-1.97;99.92
75794;BME280;64418;47.536;19.074;2023-02-15T03:26:29;101992.97;;;-1.98;99.98
75794;BME280;64418;47.536;19.074;2023-02-15T03:28:57;101987.97;;;-2.04;100.00
75794;BME280;64418;47.536;19.074;2023-02-15T03:31:26;101992.59;;;-1.91;100.00
75794;BME280;64418;47.536;19.074;2023-02-15T03:33:56;101997.66;;;-2.03;100.00
75794;BME280;64418;47.536;19.074;2023-02-15T03:36:31;101996.13;;;-2.07;100.00
75794;BME280;64418;47.536;19.074;2023-02-15T03:39:04;101998.72;;;-2.05;100.00
75794;BME280;64418;47.536;19.074;2023-02-15T03:41:34;102003.41;;;-2.10;100.00
75794;BME280;64418;47.536;19.074;2023-02-15T03:44:05;102001.19;;;-2.18;100.00
75794;BME280;64418;47.536;19.074;2023-02-15T03:46:35;102002.91;;;-2.17;100.00
75794;BME280;64418;47.536;19.074;2023-02-15T03:49:08;102002.72;;;-2.14;100.00
75794;BME280;64418;47.536;19.074;2023-02-15T03:51:39;102002.72;;;-2.14;100.00
75794;BME280;64418;47.536;19.074;2023-02-15T03:54:08;101997.16;;;-2.25;100.00
75794;BME280;64418;47.536;19.074;2023-02-15T03:56:36;101999.81;;;-2.25;100.00
75794;BME280;64418;47.536;19.074;2023-02-15T03:59:03;101998.94;;;-2.41;100.00
75794;BME280;64418;47.536;19.074;2023-02-15T04:01:34;102005.72;;;-2.35;100.00
75794;BME280;64418;47.536;19.074;2023-02-15T04:04:07;102004.09;;;-2.38;100.00
75794;BME280;64418;47.536;19.074;2023-02-15T04:06:36;101999.28;;;-2.47;100.00
75794;BME280;64418;47.536;19.074;2023-02-15T04:09:01;102003.19;;;-2.54;100.00
75794;BME280;64418;47.536;19.074;2023-02-15T04:11:27;102004.41;;;-2.44;100.00
75794;BME280;64418;47.536;19.074;2023-02-15T04:13:54;101998.94;;;-2.41;100.00
75794;BME280;64418;47.536;19.074;2023-02-15T04:16:23;102005.28;;;-2.44;100.00
75794;BME280;64418;47.536;19.074;2023-02-15T04:18:48;101993.78;;;-2.44;100.00
75794;BME280;64418;47.536;19.074;2023-02-15T04:21:14;102004.22;;;-2.41;100.00
75794;BME280;64418;47.536;19.074;2023-02-15T04:23:44;101998.00;;;-2.40;100.00
75794;BME280;64418;47.536;19.074;2023-02-15T04:26:10;101998.84;;;-2.39;100.00
75794;BME280;64418;47.536;19.074;2023-02-15T04:28:36;101997.72;;;-2.51;100.00
75794;BME280;64418;47.536;19.074;2023-02-15T04:31:01;102003.03;;;-2.51;100.00
75794;BME280;64418;47.536;19.074;2023-02-15T04:33:27;101996.97;;;-2.53;100.00
75794;BME280;64418;47.536;19.074;2023-02-15T04:35:53;101995.75;;;-2.48;100.00
75794;BME280;64418;47.536;19.074;2023-02-15T04:38:19;101998.66;;;-2.52;100.00
75794;BME280;64418;47.536;19.074;2023-02-15T04:40:49;102002.69;;;-2.45;100.00
75794;BME280;64418;47.536;19.074;2023-02-15T04:43:15;101991.66;;;-2.53;100.00
75794;BME280;64418;47.536;19.074;2023-02-15T04:45:41;101999.81;;;-2.73;100.00
75794;BME280;64418;47.536;19.074;2023-02-15T04:48:12;101996.88;;;-2.84;100.00
75794;BME280;64418;47.536;19.074;2023-02-15T04:50:38;101995.72;;;-2.96;100.00
75794;BME280;64418;47.536;19.074;2023-02-15T04:53:03;101998.91;;;-2.89;100.00
75794;BME280;64418;47.536;19.074;2023-02-15T04:55:29;102006.16;;;-2.76;100.00
75794;BME280;64418;47.536;19.074;2023-02-15T04:57:56;102005.88;;;-2.71;100.00
75794;BME280;64418;47.536;19.074;2023-02-15T05:00:22;102004.19;;;-2.72;100.00
75794;BME280;64418;47.536;19.074;2023-02-15T05:02:47;101998.19;;;-2.76;100.00
75794;BME280;64418;47.536;19.074;2023-02-15T05:05:13;102001.97;;;-2.64;100.00
75794;BME280;64418;47.536;19.074;2023-02-15T05:07:39;102002.41;;;-2.56;100.00
75794;BME280;64418;47.536;19.074;2023-02-15T05:10:08;102007.47;;;-2.52;100.00
75794;BME280;64418;47.536;19.074;2023-02-15T05:12:34;102007.41;;;-2.50;100.00
75794;BME280;64418;47.536;19.074;2023-02-15T05:15:01;102013.28;;;-2.45;100.00
75794;BME280;64418;47.536;19.074;2023-02-15T05:17:27;102012.87;;;-2.53;100.00
75794;BME280;64418;47.536;19.074;2023-02-15T05:19:54;101997.72;;;-2.51;100.00
75794;BME280;64418;47.536;19.074;2023-02-15T05:22:19;102006.84;;;-2.57;100.00
75794;BME280;64418;47.536;19.074;2023-02-15T05:24:45;102014.22;;;-2.62;100.00
75794;BME280;64418;47.536;19.074;2023-02-15T05:27:11;102019.69;;;-2.65;100.00
75794;BME280;64418;47.536;19.074;2023-02-15T05:29:37;102018.03;;;-2.67;100.00
75794;BME280;64418;47.536;19.074;2023-02-15T05:32:04;102028.75;;;-2.69;100.00
75794;BME280;64418;47.536;19.074;2023-02-15T05:34:33;102028.81;;;-2.70;100.00
75794;BME280;64418;47.536;19.074;2023-02-15T05:36:58;102027.09;;;-2.71;100.00
75794;BME280;64418;47.536;19.074;2023-02-15T05:39:24;102039.59;;;-2.73;100.00
75794;BME280;64418;47.536;19.074;2023-02-15T05:41:50;102039.97;;;-2.64;100.00
75794;BME280;64418;47.536;19.074;2023-02-15T05:44:16;102037.94;;;-2.59;100.00
75794;BME280;64418;47.536;19.074;2023-02-15T05:46:42;102041.19;;;-2.54;100.00
75794;BME280;64418;47.536;19.074;2023-02-15T05:49:10;102041.28;;;-2.55;100.00
75794;BME280;64418;47.536;19.074;2023-02-15T05:51:36;102042.81;;;-2.51;100.00
75794;BME280;64418;47.536;19.074;2023-02-15T05:54:01;102044.78;;;-2.55;100.00
75794;BME280;64418;47.536;19.074;2023-02-15T05:56:28;102041.44;;;-2.58;100.00
75794;BME280;64418;47.536;19.074;2023-02-15T05:58:54;102046.50;;;-2.54;100.00
75794;BME280;64418;47.536;19.074;2023-02-15T06:01:19;102049.00;;;-2.51;100.00
75794;BME280;64418;47.536;19.074;2023-02-15T06:03:45;102045.06;;;-2.44;100.00
75794;BME280;64418;47.536;19.074;2023-02-15T06:06:13;102045.84;;;-2.26;100.00
75794;BME280;64418;47.536;19.074;2023-02-15T06:08:39;102047.19;;;-1.70;100.00
75794;BME280;64418;47.536;19.074;2023-02-15T06:11:05;102045.47;;;-1.26;99.30
75794;BME280;64418;47.536;19.074;2023-02-15T06:13:34;102057.84;;;-0.81;96.49
75794;BME280;64418;47.536;19.074;2023-02-15T06:16:00;102054.84;;;-0.46;93.62
75794;BME280;64418;47.536;19.074;2023-02-15T06:18:26;102056.25;;;-0.13;91.13
75794;BME280;64418;47.536;19.074;2023-02-15T06:20:52;102055.19;;;0.31;88.60
75794;BME280;64418;47.536;19.074;2023-02-15T06:23:20;102052.88;;;0.26;87.67
75794;BME280;64418;47.536;19.074;2023-02-15T06:25:46;102055.81;;;-0.91;90.46
75794;BME280;64418;47.536;19.074;2023-02-15T06:28:13;102059.88;;;-1.30;92.71
75794;BME280;64418;47.536;19.074;2023-02-15T06:30:39;102061.53;;;0.16;88.71
75794;BME280;64418;47.536;19.074;2023-02-15T06:33:05;102058.56;;;1.26;82.09
75794;BME280;64418;47.536;19.074;2023-02-15T06:35:32;102060.63;;;1.60;79.49
75794;BME280;64418;47.536;19.074;2023-02-15T06:37:57;102061.88;;;1.92;78.59
75794;BME280;64418;47.536;19.074;2023-02-15T06:40:25;102064.56;;;2.29;76.08
75794;BME280;64418;47.536;19.074;2023-02-15T06:42:51;102065.34;;;3.13;72.94
75794;BME280;64418;47.536;19.074;2023-02-15T06:45:17;102070.84;;;3.34;71.38
75794;BME280;64418;47.536;19.074;2023-02-15T06:47:42;102073.59;;;4.12;68.67
75794;BME280;64418;47.536;19.074;2023-02-15T06:50:09;102073.81;;;4.20;66.93
75794;BME280;64418;47.536;19.074;2023-02-15T06:52:35;102067.56;;;4.84;65.37
75794;BME280;64418;47.536;19.074;2023-02-15T06:55:01;102067.84;;;4.81;64.27
75794;BME280;64418;47.536;19.074;2023-02-15T06:57:28;102069.59;;;5.24;63.86
75794;BME280;64418;47.536;19.074;2023-02-15T06:59:54;102068.94;;;5.82;61.22
75794;BME280;64418;47.536;19.074;2023-02-15T07:02:20;102065.59;;;5.39;62.71
75794;BME280;64418;47.536;19.074;2023-02-15T07:04:47;102070.63;;;6.44;60.69
75794;BME280;64418;47.536;19.074;2023-02-15T07:07:14;102062.72;;;6.52;58.47
75794;BME280;64418;47.536;19.074;2023-02-15T07:09:39;102062.50;;;6.25;59.16
75794;BME280;64418;47.536;19.074;2023-02-15T07:12:06;102059.19;;;7.00;57.64
75794;BME280;64418;47.536;19.074;2023-02-15T07:14:33;102063.38;;;6.35;58.50
75794;BME280;64418;47.536;19.074;2023-02-15T07:16:59;102070.81;;;6.71;57.42
75794;BME280;64418;47.536;19.074;2023-02-15T07:19:25;102080.75;;;8.31;53.04
75794;BME280;64418;47.536;19.074;2023-02-15T07:21:52;102074.16;;;7.60;54.93
75794;BME280;64418;47.536;19.074;2023-02-15T07:24:18;102063.94;;;8.64;52.66
75794;BME280;64418;47.536;19.074;2023-02-15T07:26:44;102070.31;;;9.34;49.94
75794;BME280;64418;47.536;19.074;2023-02-15T07:29:10;102068.16;;;9.63;50.00
75794;BME280;64418;47.536;19.074;2023-02-15T07:31:37;102057.59;;;10.04;48.63
75794;BME280;64418;47.536;19.074;2023-02-15T07:34:05;102064.37;;;9.82;48.67
75794;BME280;64418;47.536;19.074;2023-02-15T07:36:32;102067.69;;;10.20;48.21
75794;BME280;64418;47.536;19.074;2023-02-15T07:39:01;102062.84;;;10.39;46.89
75794;BME280;64418;47.536;19.074;2023-02-15T07:41:27;102068.09;;;10.07;49.72
75794;BME280;64418;47.536;19.074;2023-02-15T07:43:53;102061.91;;;9.89;47.39
75794;BME280;64418;47.536;19.074;2023-02-15T07:46:19;102063.13;;;9.68;49.06
75794;BME280;64418;47.536;19.074;2023-02-15T07:48:47;102061.69;;;10.08;48.14
75794;BME280;64418;47.536;19.074;2023-02-15T07:51:13;102062.78;;;10.23;46.88
75794;BME280;64418;47.536;19.074;2023-02-15T07:53:40;102062.97;;;11.04;44.80
75794;BME280;64418;47.536;19.074;2023-02-15T07:56:09;102064.81;;;10.21;46.51
75794;BME280;64418;47.536;19.074;2023-02-15T07:58:35;102064.94;;;10.53;46.75
75794;BME280;64418;47.536;19.074;2023-02-15T08:01:01;102060.72;;;11.96;44.27
75794;BME280;64418;47.536;19.074;2023-02-15T08:03:27;102065.97;;;11.98;42.67
75794;BME280;64418;47.536;19.074;2023-02-15T08:05:57;102059.12;;;12.18;41.64
75794;BME280;64418;47.536;19.074;2023-02-15T08:08:24;102053.13;;;11.59;43.13
75794;BME280;64418;47.536;19.074;2023-02-15T08:10:50;102049.09;;;11.39;43.78
75794;BME280;64418;47.536;19.074;2023-02-15T08:13:16;102051.75;;;12.66;41.53
75794;BME280;64418;47.536;19.074;2023-02-15T08:15:50;102040.66;;;12.75;40.47
75794;BME280;64418;47.536;19.074;2023-02-15T08:18:16;102050.41;;;11.84;42.44
75794;BME280;64418;47.536;19.074;2023-02-15T08:20:42;102048.94;;;12.82;40.34
75794;BME280;64418;47.536;19.074;2023-02-15T08:23:09;102042.31;;;13.44;39.71
75794;BME280;64418;47.536;19.074;2023-02-15T08:25:37;102044.91;;;14.49;38.15
75794;BME280;64418;47.536;19.074;2023-02-15T08:28:03;102044.69;;;14.65;36.89
75794;BME280;64418;47.536;19.074;2023-02-15T08:30:29;102041.41;;;14.55;36.85
75794;BME280;64418;47.536;19.074;2023-02-15T08:32:55;102036.53;;;14.86;36.78
75794;BME280;64418;47.536;19.074;2023-02-15T08:35:20;102042.09;;;13.69;38.27
75794;BME280;64418;47.536;19.074;2023-02-15T08:37:46;102045.50;;;14.80;36.77
75794;BME280;64418;47.536;19.074;2023-02-15T08:40:13;102040.00;;;17.07;34.16
75794;BME280;64418;47.536;19.074;2023-02-15T08:42:39;102042.38;;;17.76;32.63
75794;BME280;64418;47.536;19.074;2023-02-15T08:45:06;102039.38;;;17.05;32.29
75794;BME280;64418;47.536;19.074;2023-02-15T08:47:32;102041.53;;;15.74;34.08
75794;BME280;64418;47.536;19.074;2023-02-15T08:49:58;102034.03;;;15.33;35.18
75794;BME280;64418;47.536;19.074;2023-02-15T08:52:24;102036.34;;;18.25;30.76
75794;BME280;64418;47.536;19.074;2023-02-15T08:54:50;102038.06;;;19.08;30.28
75794;BME280;64418;47.536;19.074;2023-02-15T08:57:18;102035.62;;;17.72;30.30
75794;BME280;64418;47.536;19.074;2023-02-15T08:59:44;102046.87;;;20.09;27.24
75794;BME280;64418;47.536;19.074;2023-02-15T09:02:10;102038.81;;;18.53;29.94
75794;BME280;64418;47.536;19.074;2023-02-15T09:04:36;102044.66;;;19.82;28.45
75794;BME280;64418;47.536;19.074;2023-02-15T09:07:05;102044.78;;;19.12;28.97
75794;BME280;64418;47.536;19.074;2023-02-15T09:09:31;102027.63;;;17.24;30.58
75794;BME280;64418;47.536;19.074;2023-02-15T09:11:56;102022.72;;;17.92;29.99
75794;BME280;64418;47.536;19.074;2023-02-15T09:14:24;102034.81;;;19.92;28.50
75794;BME280;64418;47.536;19.074;2023-02-15T09:16:53;102026.78;;;16.03;33.11
75794;BME280;64418;47.536;19.074;2023-02-15T09:19:21;102031.13;;;16.85;32.13
75794;BME280;64418;47.536;19.074;2023-02-15T09:21:47;102031.59;;;18.58;29.27
75794;BME280;64418;47.536;19.074;2023-02-15T09:24:16;102026.59;;;19.11;29.15
75794;BME280;64418;47.536;19.074;2023-02-15T09:26:44;102034.16;;;18.91;28.91
75794;BME280;64418;47.536;19.074;2023-02-15T09:29:13;102022.59;;;19.88;28.81
75794;BME280;64418;47.536;19.074;2023-02-15T09:31:43;102030.53;;;20.69;26.36
75794;BME280;64418;47.536;19.074;2023-02-15T09:34:09;102020.00;;;18.43;30.19
75794;BME280;64418;47.536;19.074;2023-02-15T09:36:37;102024.72;;;20.59;26.62
75794;BME280;64418;47.536;19.074;2023-02-15T09:39:09;102017.06;;;17.54;30.66
75794;BME280;64418;47.536;19.074;2023-02-15T09:41:49;102016.75;;;18.66;29.56
75794;BME280;64418;47.536;19.074;2023-02-15T09:44:27;102019.75;;;19.77;28.31
75794;BME280;64418;47.536;19.074;2023-02-15T09:47:13;102010.69;;;18.95;28.68
75794;BME280;64418;47.536;19.074;2023-02-15T09:49:53;102008.81;;;18.45;29.59
75794;BME280;64418;47.536;19.074;2023-02-15T09:55:27;102003.03;;;19.53;28.22
75794;BME280;64418;47.536;19.074;2023-02-15T09:58:05;102001.09;;;20.81;26.97
75794;BME280;64418;47.536;19.074;2023-02-15T10:00:40;101995.94;;;18.01;29.93
75794;BME280;64418;47.536;19.074;2023-02-15T10:03:23;101997.84;;;18.51;29.33
75794;BME280;64418;47.536;19.074;2023-02-15T10:06:03;101996.94;;;18.06;30.31
75794;BME280;64418;47.536;19.074;2023-02-15T10:08:51;101973.06;;;19.70;28.25
75794;BME280;64418;47.536;19.074;2023-02-15T10:11:25;101989.69;;;20.78;26.54
75794;BME280;64418;47.536;19.074;2023-02-15T10:14:02;101986.81;;;20.43;26.75
75794;BME280;64418;47.536;19.074;2023-02-15T10:16:38;101998.75;;;20.18;27.52
75794;BME280;64418;47.536;19.074;2023-02-15T10:19:16;101982.06;;;19.59;28.48
75794;BME280;64418;47.536;19.074;2023-02-15T10:21:58;101986.34;;;19.73;28.13
75794;BME280;64418;47.536;19.074;2023-02-15T10:24:43;101975.78;;;20.25;26.94
75794;BME280;64418;47.536;19.074;2023-02-15T10:27:18;101973.84;;;19.28;28.14
75794;BME280;64418;47.536;19.074;2023-02-15T10:29:52;101980.06;;;19.48;28.75
75794;BME280;64418;47.536;19.074;2023-02-15T10:32:24;101995.84;;;19.95;27.27
75794;BME280;64418;47.536;19.074;2023-02-15T10:34:59;101971.78;;;21.40;25.89
75794;BME280;64418;47.536;19.074;2023-02-15T10:37:44;101988.50;;;20.26;26.43
75794;BME280;64418;47.536;19.074;2023-02-15T10:40:23;101983.50;;;21.24;25.49
75794;BME280;64418;47.536;19.074;2023-02-15T10:43:04;101977.38;;;21.68;24.83
75794;BME280;64418;47.536;19.074;2023-02-15T10:45:40;101978.63;;;20.18;27.15
75794;BME280;64418;47.536;19.074;2023-02-15T10:48:25;101976.81;;;22.29;24.06
75794;BME280;64418;47.536;19.074;2023-02-15T10:50:57;101968.47;;;18.07;29.37
75794;BME280;64418;47.536;19.074;2023-02-15T10:53:42;101962.13;;;18.58;29.28
75794;BME280;64418;47.536;19.074;2023-02-15T10:56:19;101966.47;;;20.44;27.04
75794;BME280;64418;47.536;19.074;2023-02-15T10:58:59;101962.53;;;19.85;27.65
75794;BME280;64418;47.536;19.074;2023-02-15T11:01:34;101952.13;;;20.83;25.92
75794;BME280;64418;47.536;19.074;2023-02-15T11:04:21;101953.00;;;20.95;25.62
75794;BME280;64418;47.536;19.074;2023-02-15T11:07:02;101946.19;;;19.90;27.42
75794;BME280;64418;47.536;19.074;2023-02-15T11:09:36;101942.03;;;20.65;26.24
75794;BME280;64418;47.536;19.074;2023-02-15T11:12:09;101935.78;;;21.70;24.71
75794;BME280;64418;47.536;19.074;2023-02-15T11:14:43;101929.34;;;21.41;25.11
75794;BME280;64418;47.536;19.074;2023-02-15T11:17:14;101917.34;;;21.24;25.22
75794;BME280;64418;47.536;19.074;2023-02-15T11:19:50;101926.56;;;21.18;24.89
75794;BME280;64418;47.536;19.074;2023-02-15T11:22:23;101922.75;;;20.77;25.54
75794;BME280;64418;47.536;19.074;2023-02-15T11:24:50;101919.50;;;18.11;29.50
75794;BME280;64418;47.536;19.074;2023-02-15T11:27:23;101919.00;;;19.39;28.17
75794;BME280;64418;47.536;19.074;2023-02-15T11:29:55;101920.28;;;19.37;27.82
75794;BME280;64418;47.536;19.074;2023-02-15T11:32:28;101908.97;;;20.17;26.65
75794;BME280;64418;47.536;19.074;2023-02-15T11:35:02;101911.56;;;19.21;27.98
75794;BME280;64418;47.536;19.074;2023-02-15T11:37:33;101901.19;;;18.43;29.42
75794;BME280;64418;47.536;19.074;2023-02-15T11:40:25;101899.66;;;18.15;29.35
75794;BME280;64418;47.536;19.074;2023-02-15T11:42:55;101898.41;;;19.23;28.13
75794;BME280;64418;47.536;19.074;2023-02-15T11:45:25;101889.16;;;18.75;29.21
75794;BME280;64418;47.536;19.074;2023-02-15T11:47:52;101886.34;;;21.68;24.93
75794;BME280;64418;47.536;19.074;2023-02-15T11:50:22;101895.44;;;19.68;27.35
75794;BME280;64418;47.536;19.074;2023-02-15T11:52:52;101881.97;;;19.42;27.71
75794;BME280;64418;47.536;19.074;2023-02-15T11:55:23;101881.09;;;19.41;27.64
75794;BME280;64418;47.536;19.074;2023-02-15T11:57:55;101885.62;;;20.08;26.40
75794;BME280;64418;47.536;19.074;2023-02-15T12:00:31;101878.69;;;19.88;26.11
75794;BME280;64418;47.536;19.074;2023-02-15T12:03:03;101868.81;;;18.83;28.04
75794;BME280;64418;47.536;19.074;2023-02-15T12:05:39;101872.38;;;18.83;28.06
75794;BME280;64418;47.536;19.074;2023-02-15T12:08:16;101873.28;;;18.46;28.75
75794;BME280;64418;47.536;19.074;2023-02-15T12:10:50;101869.25;;;19.22;27.71
75794;BME280;64418;47.536;19.074;2023-02-15T12:13:20;101865.56;;;19.90;26.75
75794;BME280;64418;47.536;19.074;2023-02-15T12:15:47;101860.78;;;18.56;28.70
75794;BME280;64418;47.536;19.074;2023-02-15T12:18:21;101855.00;;;19.87;26.77
75794;BME280;64418;47.536;19.074;2023-02-15T12:20:50;101860.75;;;19.85;26.98
75794;BME280;64418;47.536;19.074;2023-02-15T12:23:18;101859.91;;;18.87;28.08
75794;BME280;64418;47.536;19.074;2023-02-15T12:25:51;101854.22;;;18.51;28.97
75794;BME280;64418;47.536;19.074;2023-02-15T12:28:26;101836.19;;;18.37;29.42
75794;BME280;64418;47.536;19.074;2023-02-15T12:30:57;101847.66;;;19.26;28.27
75794;BME280;64418;47.536;19.074;2023-02-15T12:33:27;101839.44;;;21.17;25.72
75794;BME280;64418;47.536;19.074;2023-02-15T12:36:00;101833.41;;;19.17;27.92
75794;BME280;64418;47.536;19.074;2023-02-15T12:38:29;101837.72;;;20.69;26.19
75794;BME280;64418;47.536;19.074;2023-02-15T12:41:02;101829.28;;;20.41;26.28
75794;BME280;64418;47.536;19.074;2023-02-15T12:43:32;101825.66;;;20.29;26.51
75794;BME280;64418;47.536;19.074;2023-02-15T12:46:14;101831.88;;;19.21;27.84
75794;BME280;64418;47.536;19.074;2023-02-15T12:49:05;101824.66;;;19.93;27.08
75794;BME280;64418;47.536;19.074;2023-02-15T12:51:31;101799.19;;;18.14;29.49
75794;BME280;64418;47.536;19.074;2023-02-15T12:54:26;101811.84;;;18.47;29.05
75794;BME280;64418;47.536;19.074;2023-02-15T12:56:54;101808.66;;;19.72;27.20
75794;BME280;64418;47.536;19.074;2023-02-15T12:59:20;101806.72;;;18.25;29.35
75794;BME280;64418;47.536;19.074;2023-02-15T13:01:51;101799.91;;;18.03;29.94